createdAt,value
2023-01-17T00:03:20.181Z,4.40
2023-01-17T00:06:06.894Z,4.40
2023-01-17T00:08:52.977Z,4.20
2023-01-17T00:21:49.488Z,4.10
2023-01-17T00:24:37.259Z,3.70
2023-01-17T00:27:12.457Z,4.00
2023-01-17T00:29:40.056Z,3.60
2023-01-17T00:32:08.250Z,3.90
2023-01-17T00:34:35.714Z,4.20
2023-01-17T00:37:05.959Z,3.90
2023-01-17T00:39:32.861Z,3.90
2023-01-17T00:41:59.955Z,3.70
2023-01-17T00:44:45.920Z,4.30
2023-01-17T00:47:31.236Z,4.10
2023-01-17T00:50:19.574Z,3.80
2023-01-17T00:53:08.193Z,3.80
2023-01-17T00:55:54.112Z,3.60
2023-01-17T00:58:41.636Z,3.70
2023-01-17T01:01:27.258Z,3.60
2023-01-17T01:07:00.705Z,3.60
2023-01-17T01:09:47.451Z,3.40
2023-01-17T01:12:35.683Z,3.40
2023-01-17T01:18:36.282Z,3.60
2023-01-17T01:21:24.667Z,3.40
2023-01-17T01:26:58.880Z,3.40
2023-01-17T01:29:49.485Z,3.50
2023-01-17T01:32:35.877Z,3.40
2023-01-17T01:35:03.910Z,4.40
2023-01-17T01:37:36.788Z,3.50
2023-01-17T01:40:06.730Z,3.60
2023-01-17T01:42:43.016Z,3.60
2023-01-17T01:45:22.351Z,3.60
2023-01-17T01:47:52.773Z,3.60
2023-01-17T01:50:29.204Z,3.60
2023-01-17T01:53:01.822Z,3.60
2023-01-17T01:55:37.998Z,3.60
2023-01-17T01:58:34.064Z,3.60
2023-01-17T02:03:36.542Z,3.60
2023-01-17T02:06:20.227Z,3.50
2023-01-17T02:08:53.399Z,3.40
2023-01-17T02:13:56.938Z,3.50
2023-01-17T02:16:40.299Z,3.60
2023-01-17T02:19:37.239Z,3.60
2023-01-17T02:22:35.123Z,3.70
2023-01-17T02:25:36.695Z,3.60
2023-01-17T02:28:22.525Z,3.60
2023-01-17T02:30:58.816Z,3.50
2023-01-17T02:33:36.390Z,3.40
2023-01-17T02:36:10.170Z,3.40
2023-01-17T02:38:59.317Z,3.60
2023-01-17T02:41:36.180Z,3.30
2023-01-17T02:44:07.934Z,3.20
2023-01-17T02:46:47.702Z,3.40
2023-01-17T02:52:21.946Z,3.20
2023-01-17T02:55:01.846Z,3.00
2023-01-17T02:57:47.696Z,3.00
2023-01-17T03:00:25.345Z,3.10
2023-01-17T03:03:03.977Z,2.80
2023-01-17T03:05:39.864Z,2.90
2023-01-17T03:08:08.948Z,2.50
2023-01-17T03:10:45.053Z,2.50
2023-01-17T03:13:14.035Z,2.40
2023-01-17T03:15:46.956Z,2.60
2023-01-17T03:18:17.829Z,2.50
2023-01-17T03:20:46.427Z,2.30
2023-01-17T03:28:17.132Z,2.50
2023-01-17T03:30:47.081Z,2.30
2023-01-17T03:33:18.607Z,2.80
2023-01-17T03:43:19.795Z,2.40
2023-01-17T03:45:51.932Z,2.30
2023-01-17T03:48:26.067Z,2.40
2023-01-17T03:50:54.553Z,2.40
2023-01-17T03:58:22.352Z,2.50
2023-01-17T04:05:51.158Z,2.60
2023-01-17T04:08:20.592Z,2.70
2023-01-17T04:10:49.731Z,2.60
2023-01-17T04:13:18.429Z,2.80
2023-01-17T04:15:50.091Z,2.60
2023-01-17T04:18:21.250Z,2.20
2023-01-17T04:20:51.961Z,2.90
2023-01-17T04:23:21.422Z,2.60
2023-01-17T04:25:51.270Z,2.50
2023-01-17T04:28:23.758Z,2.60
2023-01-17T04:30:57.706Z,3.00
2023-01-17T04:33:33.264Z,2.60
2023-01-17T04:36:03.277Z,2.50
2023-01-17T04:38:31.839Z,2.40
2023-01-17T04:41:00.005Z,2.50
2023-01-17T04:43:28.250Z,2.40
2023-01-17T04:45:58.127Z,2.50
2023-01-17T04:48:27.231Z,2.50
2023-01-17T04:51:02.413Z,2.10
2023-01-17T04:53:31.430Z,2.20
2023-01-17T04:58:28.615Z,2.40
2023-01-17T05:00:57.622Z,2.40
2023-01-17T05:03:26.363Z,2.40
2023-01-17T05:06:02.290Z,2.60
2023-01-17T05:08:33.850Z,2.50
2023-01-17T05:11:03.173Z,2.50
2023-01-17T05:13:33.387Z,2.70
2023-01-17T05:18:33.591Z,2.50
2023-01-17T05:21:09.668Z,2.40
2023-01-17T05:23:40.558Z,2.50
2023-01-17T05:26:08.619Z,2.70
2023-01-17T05:28:41.164Z,3.00
2023-01-17T05:31:09.764Z,2.70
2023-01-17T05:33:37.760Z,3.00
2023-01-17T05:36:06.077Z,2.70
2023-01-17T05:38:37.264Z,3.00
2023-01-17T05:41:09.740Z,2.70
2023-01-17T05:46:07.701Z,2.70
2023-01-17T05:51:05.878Z,2.80
2023-01-17T05:53:36.925Z,2.70
2023-01-17T05:56:07.781Z,2.70
2023-01-17T05:58:37.494Z,2.50
2023-01-17T06:03:41.511Z,2.70
2023-01-17T06:06:17.095Z,2.80
2023-01-17T06:08:52.293Z,2.60
2023-01-17T06:11:23.926Z,2.70
2023-01-17T06:13:51.992Z,2.40
2023-01-17T06:16:21.614Z,2.70
2023-01-17T06:18:54.051Z,2.60
2023-01-17T06:21:22.475Z,2.90
2023-01-17T06:23:50.566Z,2.80
2023-01-17T06:28:53.902Z,2.70
2023-01-17T06:31:23.039Z,3.00
2023-01-17T06:33:52.896Z,2.80
2023-01-17T06:36:22.288Z,2.80
2023-01-17T06:38:54.810Z,2.80
2023-01-17T06:41:24.022Z,2.60
2023-01-17T06:43:57.427Z,2.60
2023-01-17T06:46:28.667Z,3.00
2023-01-17T06:49:01.524Z,3.10
2023-01-17T06:51:31.065Z,2.90
2023-01-17T06:53:59.382Z,2.90
2023-01-17T07:01:32.132Z,2.80
2023-01-17T07:04:10.913Z,2.70
2023-01-17T07:06:53.126Z,2.80
2023-01-17T07:11:51.820Z,2.80
2023-01-17T07:14:24.294Z,2.80
2023-01-17T07:19:26.965Z,2.70
2023-01-17T07:22:06.463Z,2.60
2023-01-17T07:24:36.438Z,2.80
2023-01-17T07:27:08.214Z,2.70
2023-01-17T07:32:08.766Z,3.00
2023-01-17T07:34:40.381Z,3.00
2023-01-17T07:37:09.045Z,2.90
2023-01-17T07:39:40.534Z,3.10
2023-01-17T07:42:09.138Z,2.60
2023-01-17T07:44:46.731Z,2.70
2023-01-17T07:47:15.001Z,2.80
2023-01-17T07:49:51.563Z,2.60
2023-01-17T07:52:19.525Z,2.70
2023-01-17T07:54:51.001Z,2.80
2023-01-17T07:57:19.675Z,2.80
2023-01-17T07:59:51.150Z,3.10
2023-01-17T08:02:24.590Z,2.90
2023-01-17T08:04:52.804Z,3.20
2023-01-17T08:09:54.488Z,2.90
2023-01-17T08:12:26.085Z,3.20
2023-01-17T08:14:56.919Z,3.20
2023-01-17T08:17:28.295Z,3.00
2023-01-17T08:20:02.378Z,3.40
2023-01-17T08:22:31.891Z,3.20
2023-01-17T08:24:59.787Z,3.50
2023-01-17T08:27:30.837Z,3.40
2023-01-17T08:30:00.292Z,4.00
2023-01-17T08:32:28.540Z,3.70
2023-01-17T08:34:57.514Z,3.50
2023-01-17T08:37:26.837Z,3.60
2023-01-17T08:39:54.983Z,3.70
2023-01-17T08:42:23.503Z,3.80
2023-01-17T08:44:52.471Z,3.90
2023-01-17T08:47:21.794Z,4.00
2023-01-17T08:49:53.178Z,4.00
2023-01-17T08:52:21.472Z,4.40
2023-01-17T08:54:52.033Z,4.40
2023-01-17T08:57:20.854Z,4.30
2023-01-17T08:59:52.697Z,4.30
2023-01-17T09:02:24.053Z,4.20
2023-01-17T09:04:53.732Z,4.50
2023-01-17T09:07:22.374Z,4.40
2023-01-17T09:09:53.672Z,5.20
2023-01-17T09:12:26.359Z,5.10
2023-01-17T09:14:54.399Z,4.90
2023-01-17T09:17:24.166Z,5.90
2023-01-17T09:19:52.877Z,4.40
2023-01-17T09:24:50.566Z,4.60
2023-01-17T09:27:24.296Z,4.60
2023-01-17T09:29:52.299Z,4.70
2023-01-17T09:32:20.240Z,4.70
2023-01-17T09:34:54.832Z,4.60
2023-01-17T09:37:23.172Z,4.70
2023-01-17T09:39:51.716Z,4.70
2023-01-17T09:42:25.517Z,4.70
2023-01-17T09:44:54.508Z,4.60
2023-01-17T09:47:33.307Z,4.90
2023-01-17T09:50:39.053Z,5.00
2023-01-17T09:53:16.549Z,4.90
2023-01-17T09:55:51.402Z,4.90
2023-01-17T09:58:22.317Z,5.00
2023-01-17T10:01:00.178Z,5.10
2023-01-17T10:03:58.654Z,5.10
2023-01-17T10:06:47.302Z,5.20
2023-01-17T10:09:34.978Z,5.20
2023-01-17T10:12:24.198Z,5.20
2023-01-17T10:15:13.534Z,5.40
2023-01-17T10:17:52.566Z,5.40
2023-01-17T10:20:39.313Z,5.30
2023-01-17T10:23:31.088Z,5.30
2023-01-17T10:26:06.811Z,5.30
2023-01-17T10:28:42.565Z,5.40
2023-01-17T10:31:17.026Z,5.20
2023-01-17T10:33:53.614Z,5.20
2023-01-17T10:36:24.496Z,5.30
2023-01-17T10:38:58.629Z,5.20
2023-01-17T10:41:32.295Z,5.40
2023-01-17T10:44:11.023Z,5.30
2023-01-17T10:46:43.986Z,5.30
2023-01-17T10:49:20.830Z,5.30
2023-01-17T10:52:12.720Z,5.40
2023-01-17T10:55:18.369Z,5.40
2023-01-17T10:57:49.108Z,5.40
2023-01-17T11:00:44.195Z,5.30
2023-01-17T11:03:14.334Z,5.30
2023-01-17T11:05:46.522Z,5.20
2023-01-17T11:08:20.944Z,5.50
2023-01-17T11:10:55.083Z,5.40
2023-01-17T11:13:33.452Z,5.60
2023-01-17T11:16:06.163Z,5.50
2023-01-17T11:18:40.158Z,5.50
2023-01-17T11:21:13.634Z,5.70
2023-01-17T11:23:43.842Z,5.90
2023-01-17T11:26:24.862Z,5.90
2023-01-17T11:28:55.084Z,5.90
2023-01-17T11:31:40.557Z,6.10
2023-01-17T11:34:17.933Z,6.10
2023-01-17T11:36:47.103Z,6.20
2023-01-17T11:39:29.757Z,6.40
2023-01-17T11:41:59.240Z,6.50
2023-01-17T11:44:33.251Z,6.60
2023-01-17T11:47:19.445Z,6.30
2023-01-17T11:49:49.120Z,6.70
2023-01-17T11:52:24.556Z,6.40
2023-01-17T11:54:55.372Z,6.30
2023-01-17T11:57:31.840Z,6.20
2023-01-17T12:00:16.682Z,6.30
2023-01-17T12:03:03.534Z,6.00
2023-01-17T12:05:53.531Z,6.10
2023-01-17T12:08:34.954Z,6.10
2023-01-17T12:11:09.053Z,6.10
2023-01-17T12:14:01.829Z,6.10
2023-01-17T12:16:45.641Z,6.40
2023-01-17T12:19:38.149Z,6.20
2023-01-17T12:22:24.374Z,6.60
2023-01-17T12:25:10.083Z,6.60
2023-01-17T12:27:47.277Z,6.20
2023-01-17T12:30:34.136Z,6.20
2023-01-17T12:33:15.844Z,6.20
2023-01-17T12:35:51.546Z,6.20
2023-01-17T12:38:33.318Z,6.00
2023-01-17T12:41:07.880Z,6.20
2023-01-17T12:43:42.060Z,6.30
2023-01-17T12:46:21.060Z,6.40
2023-01-17T12:48:53.486Z,6.20
2023-01-17T12:51:27.845Z,6.30
2023-01-17T12:54:04.511Z,6.50
2023-01-17T12:56:38.450Z,6.50
2023-01-17T12:59:16.673Z,6.60
2023-01-17T13:01:57.677Z,6.60
2023-01-17T13:04:32.435Z,6.90
2023-01-17T13:07:10.561Z,6.60
2023-01-17T13:09:43.168Z,6.70
2023-01-17T13:12:15.048Z,6.80
2023-01-17T13:14:43.571Z,6.80
2023-01-17T13:17:29.032Z,6.80
2023-01-17T13:20:01.098Z,6.80
2023-01-17T13:22:32.816Z,6.80
2023-01-17T13:25:23.688Z,6.80
2023-01-17T13:28:11.867Z,6.70
2023-01-17T13:31:12.610Z,6.70
2023-01-17T13:33:59.828Z,6.60
2023-01-17T13:36:42.828Z,6.60
2023-01-17T13:39:32.670Z,6.60
2023-01-17T13:47:28.588Z,6.40
2023-01-17T13:49:59.004Z,6.40
2023-01-17T13:52:36.083Z,6.40
2023-01-17T13:55:08.802Z,6.30
2023-01-17T13:57:46.660Z,6.20
2023-01-17T14:00:59.727Z,6.20
2023-01-17T14:04:03.465Z,6.20
2023-01-17T14:06:41.822Z,6.20
2023-01-17T14:09:27.504Z,6.20
2023-01-17T14:12:02.707Z,6.10
2023-01-17T14:14:55.507Z,6.00
2023-01-17T14:17:53.868Z,6.10
2023-01-17T14:21:06.449Z,6.00
2023-01-17T14:24:05.082Z,6.00
2023-01-17T14:26:46.194Z,6.00
2023-01-17T14:29:52.343Z,6.00
2023-01-17T14:32:23.393Z,6.80
2023-01-17T14:34:53.610Z,5.70
2023-01-17T14:37:37.886Z,5.50
2023-01-17T14:40:17.148Z,5.60
2023-01-17T14:42:56.836Z,5.70
2023-01-17T14:45:28.912Z,5.70
2023-01-17T14:47:58.594Z,5.70
2023-01-17T14:50:29.945Z,5.70
2023-01-17T14:53:18.267Z,5.60
2023-01-17T14:55:57.547Z,5.50
2023-01-17T14:58:30.747Z,5.50
2023-01-17T15:01:03.509Z,5.50
2023-01-17T15:03:34.667Z,5.30
2023-01-17T15:06:12.834Z,5.40
2023-01-17T15:11:16.179Z,5.40
2023-01-17T15:13:50.739Z,5.30
2023-01-17T15:16:23.148Z,5.30
2023-01-17T15:18:54.946Z,5.20
2023-01-17T15:21:25.760Z,5.20
2023-01-17T15:23:57.284Z,5.80
2023-01-17T15:26:28.092Z,5.10
2023-01-17T15:29:05.914Z,5.00
2023-01-17T15:31:44.057Z,4.70
2023-01-17T15:34:23.387Z,4.90
2023-01-17T15:39:23.051Z,5.30
2023-01-17T15:41:55.390Z,4.80
2023-01-17T15:44:47.371Z,4.70
2023-01-17T15:47:32.732Z,4.70
2023-01-17T15:50:02.988Z,4.60
2023-01-17T15:55:12.520Z,4.40
2023-01-17T16:00:21.876Z,4.80
2023-01-17T16:02:57.260Z,4.30
2023-01-17T16:05:43.559Z,4.20
2023-01-17T16:08:52.898Z,4.40
2023-01-17T16:11:22.323Z,4.10
2023-01-17T16:16:26.660Z,4.00
2023-01-17T16:19:03.036Z,4.00
2023-01-17T16:21:34.336Z,4.00
2023-01-17T16:24:04.522Z,4.00
2023-01-17T16:26:32.599Z,3.80
2023-01-17T16:29:01.027Z,3.90
2023-01-17T16:31:30.660Z,3.90
2023-01-17T16:36:28.627Z,3.70
2023-01-17T16:38:58.139Z,3.70
2023-01-17T16:41:28.440Z,3.90
2023-01-17T16:44:02.132Z,3.90
2023-01-17T16:46:32.304Z,3.80
2023-01-17T16:49:03.699Z,3.80
2023-01-17T16:58:58.789Z,3.40
2023-01-17T17:03:59.879Z,3.70
2023-01-17T17:13:54.200Z,3.50
2023-01-17T17:16:28.887Z,3.50
2023-01-17T17:19:02.426Z,3.40
2023-01-17T17:21:31.914Z,3.40
2023-01-17T17:24:01.731Z,3.40
2023-01-17T17:26:34.620Z,3.40
2023-01-17T17:29:04.110Z,3.40
2023-01-17T17:34:07.345Z,3.20
2023-01-17T17:36:38.660Z,3.40
2023-01-17T17:39:09.360Z,3.40
2023-01-17T17:41:39.316Z,3.40
2023-01-17T17:51:46.239Z,3.20
2023-01-17T17:54:18.941Z,4.30
2023-01-17T17:56:51.608Z,3.10
2023-01-17T17:59:24.275Z,3.40
2023-01-17T18:04:23.015Z,3.30
2023-01-17T18:19:25.894Z,3.20
2023-01-17T18:21:54.759Z,2.80
2023-01-17T18:24:25.636Z,2.90
2023-01-17T18:26:57.199Z,3.20
2023-01-17T18:29:28.035Z,3.20
2023-01-17T18:34:31.574Z,3.10
2023-01-17T18:39:31.267Z,3.20
2023-01-17T18:49:33.294Z,1.00
2023-01-17T18:54:31.935Z,3.30
2023-01-17T19:06:57.710Z,3.30
2023-01-17T19:24:26.667Z,2.10
2023-01-17T19:41:54.997Z,3.30
2023-01-17T19:56:58.744Z,3.10
2023-01-17T20:04:27.578Z,3.00
2023-01-17T20:12:00.888Z,3.30
2023-01-17T20:14:31.993Z,3.00
2023-01-17T20:17:00.972Z,3.00
2023-01-17T20:29:35.863Z,3.00
2023-01-17T20:32:05.123Z,2.90
2023-01-17T20:44:39.930Z,3.00
2023-01-17T20:54:35.863Z,3.00
2023-01-17T21:02:10.692Z,3.00
2023-01-17T21:07:11.074Z,2.90
2023-01-17T21:17:09.522Z,3.10
2023-01-17T21:19:39.106Z,2.80
2023-01-17T21:22:07.799Z,3.10
2023-01-17T21:34:36.248Z,3.10
2023-01-17T21:39:34.562Z,3.00
2023-01-17T21:49:41.566Z,3.00
2023-01-17T21:52:23.575Z,3.00
2023-01-17T21:57:56.563Z,2.90
2023-01-17T22:00:25.115Z,3.00
2023-01-17T22:02:54.357Z,3.00
2023-01-17T22:05:33.913Z,3.00
2023-01-17T22:08:15.986Z,3.00
2023-01-17T22:13:26.514Z,3.00
2023-01-17T22:18:32.016Z,3.00
2023-01-17T22:21:09.216Z,2.90
2023-01-17T22:23:38.942Z,2.90
2023-01-17T22:26:09.451Z,2.90
2023-01-17T22:28:38.261Z,2.60
2023-01-17T22:31:12.900Z,2.80
2023-01-17T22:33:44.571Z,2.90
2023-01-17T22:36:17.774Z,3.30
2023-01-17T22:38:46.762Z,2.80
2023-01-17T22:41:16.326Z,2.90
2023-01-17T22:43:46.626Z,3.20
2023-01-17T22:46:18.843Z,2.90
2023-01-17T22:48:49.504Z,2.90
2023-01-17T22:51:21.928Z,2.90
2023-01-17T22:53:53.163Z,2.90
2023-01-17T22:56:25.974Z,2.90
2023-01-17T22:58:54.358Z,2.80
2023-01-17T23:01:26.546Z,2.90
2023-01-17T23:03:56.188Z,3.00
2023-01-17T23:06:31.700Z,2.90
2023-01-17T23:09:04.855Z,2.90
2023-01-17T23:11:46.275Z,3.10
2023-01-17T23:14:20.748Z,3.00
2023-01-17T23:17:08.276Z,3.00
2023-01-17T23:19:38.474Z,2.90
2023-01-17T23:22:20.558Z,3.10
2023-01-17T23:24:54.186Z,2.80
2023-01-17T23:27:43.296Z,2.50
2023-01-17T23:30:13.761Z,0.90
2023-01-17T23:32:46.428Z,2.60
2023-01-17T23:35:16.928Z,2.80
2023-01-17T23:38:04.069Z,2.70
2023-01-17T23:40:35.633Z,2.60
2023-01-17T23:43:22.147Z,2.80
2023-01-17T23:45:51.529Z,2.70
2023-01-17T23:48:21.264Z,2.50
2023-01-17T23:50:50.105Z,2.40
2023-01-17T23:53:27.247Z,2.60
2023-01-17T23:55:57.530Z,2.50
2023-01-17T23:58:27.640Z,2.50
